Aviation Digital Data Service (ADDS)

Output produced by METARs form (0813 UTC 18 February 2019)
found at http://www.aviationweather.gov/metar/data/
 
Forecast for: BGSF (SONDRE STROMFJOR, GL)
Text: TAF BGSF 180453Z 1806/1901 06008KT 9999 FEW150
Forecast period: 0600 UTC 18 February 2019 to 0100 UTC 19 February 2019
Forecast type: FROM: standard forecast or significant change
Winds: from the ENE (60 degrees) at 9 MPH (8 knots; 4.1 m/s)
Visibility: 6 or more miles 10+ km)
Ceiling: at least 12,000 feet AGL
Clouds: few clouds at 15000 feet AGL
Weather: no significant weather forecast for this period